Time;durP1;ratioP1;P1;durP2;ratioP2;P2;SDS_P1;SDS_P2;PMS_P1;PMS_P2;Temp;Humidity;BMP_temperature;BMP_pressure;BME280_temperature;BME280_humidity;BME280_pressure;Samples;Min_cycle;Max_cycle;Signal;HPM_P1;HPM_P2
2023/02/13 00:01:15;;;;;;;45.30;24.42;;;;;;;1.33;80.09;96602.53;5032604;28;20199;-79
2023/02/13 00:03:42;;;;;;;44.38;23.98;;;;;;;1.37;80.16;96603.31;5032383;28;20200;-79
2023/02/13 00:06:09;;;;;;;41.90;24.08;;;;;;;1.33;79.91;96604.28;5032340;28;20258;-79
2023/02/13 00:08:36;;;;;;;39.33;22.83;;;;;;;1.32;79.91;96608.59;5032500;28;20227;-79
2023/02/13 00:11:03;;;;;;;44.83;23.67;;;;;;;1.31;79.96;96606.03;5032308;28;20611;-79
2023/02/13 00:13:31;;;;;;;39.83;21.30;;;;;;;1.27;79.80;96613.03;5032427;28;20203;-79
2023/02/13 00:15:59;;;;;;;33.22;22.17;;;;;;;1.24;79.79;96607.91;5032355;28;20203;-79
2023/02/13 00:18:26;;;;;;;38.55;22.63;;;;;;;1.20;80.07;96606.28;5032189;28;20655;-80
2023/02/13 00:21:00;;;;;;;38.95;22.73;;;;;;;1.16;80.08;96610.66;5032483;28;20200;-79
2023/02/13 00:23:27;;;;;;;44.10;25.63;;;;;;;1.16;80.52;96615.00;5032307;28;20203;-79
2023/02/13 00:25:54;;;;;;;42.33;23.83;;;;;;;1.17;80.73;96621.84;5040171;28;20227;-79
2023/02/13 00:28:21;;;;;;;39.25;22.58;;;;;;;1.17;81.19;96612.38;5051928;28;20198;-79
2023/02/13 00:30:52;;;;;;;42.28;22.23;;;;;;;1.19;81.21;96614.91;5051972;28;20219;-79
2023/02/13 00:33:19;;;;;;;36.60;23.02;;;;;;;1.19;80.69;96614.91;5051159;28;20203;-79
2023/02/13 00:35:45;;;;;;;36.97;22.05;;;;;;;1.21;80.49;96616.59;5052342;28;20199;-79
2023/02/13 00:38:12;;;;;;;42.25;23.92;;;;;;;1.19;80.40;96618.34;5000593;28;20194;-80
2023/02/13 00:40:39;;;;;;;38.42;22.75;;;;;;;1.16;80.57;96622.75;5051730;28;20631;-79
2023/02/13 00:43:06;;;;;;;36.70;22.58;;;;;;;1.13;80.54;96617.59;5016964;28;20260;-79
2023/02/13 00:45:32;;;;;;;41.75;23.00;;;;;;;1.12;80.68;96621.94;5000594;28;20207;-79
2023/02/13 00:48:00;;;;;;;35.58;22.52;;;;;;;1.07;80.33;96618.59;5051939;28;20208;-79
2023/02/13 00:50:27;;;;;;;38.92;20.60;;;;;;;1.05;80.22;96620.34;5052182;28;20274;-79
2023/02/13 00:52:54;;;;;;;39.67;22.23;;;;;;;1.05;80.24;96628.09;5051681;28;20203;-78
2023/02/13 00:55:21;;;;;;;37.42;22.40;;;;;;;1.03;79.89;96632.47;5051970;28;20202;-79
2023/02/13 00:57:47;;;;;;;35.63;20.35;;;;;;;0.98;79.96;96631.69;5000348;28;20275;-79
2023/02/13 01:00:16;;;;;;;36.65;20.17;;;;;;;0.99;79.64;96628.22;5051626;28;20268;-79
2023/02/13 01:02:42;;;;;;;39.20;20.05;;;;;;;0.96;79.61;96633.47;4983965;28;20203;-79
2023/02/13 01:05:11;;;;;;;42.15;23.23;;;;;;;0.96;79.81;96638.63;5051625;28;20207;-79
2023/02/13 01:07:37;;;;;;;47.97;22.33;;;;;;;0.96;80.47;96633.47;5051660;28;20206;-79
2023/02/13 01:10:05;;;;;;;40.83;20.85;;;;;;;0.98;80.71;96636.88;4999878;28;20226;-79
2023/02/13 01:12:32;;;;;;;39.90;23.17;;;;;;;1.03;80.94;96634.19;5051540;28;20202;-79
2023/02/13 01:14:58;;;;;;;44.92;22.90;;;;;;;1.07;80.69;96616.00;5051422;28;20592;-79
2023/02/13 01:17:25;;;;;;;38.30;21.42;;;;;;;1.05;80.33;96625.53;5051658;28;20883;-79
2023/02/13 01:19:52;;;;;;;34.25;21.40;;;;;;;1.08;80.76;96622.88;5051581;28;20207;-79
2023/02/13 01:22:20;;;;;;;34.10;20.35;;;;;;;1.08;81.14;96625.47;5051496;28;20250;-80
2023/02/13 01:24:47;;;;;;;38.05;21.77;;;;;;;1.10;81.48;96626.28;5054290;28;20261;-79
2023/02/13 01:27:14;;;;;;;34.65;22.45;;;;;;;1.13;81.44;96631.38;5055989;28;20242;-79
2023/02/13 01:29:40;;;;;;;38.67;20.98;;;;;;;1.12;80.88;96628.84;5055395;28;20279;-78
2023/02/13 01:32:07;;;;;;;38.05;21.40;;;;;;;1.11;80.84;96625.38;5055657;28;20248;-79
2023/02/13 01:34:34;;;;;;;40.42;21.63;;;;;;;1.15;80.62;96629.63;5055187;28;20277;-79
2023/02/13 01:37:01;;;;;;;38.78;20.92;;;;;;;1.17;80.56;96632.19;5055689;28;20248;-79
2023/02/13 01:39:29;;;;;;;42.78;21.80;;;;;;;1.19;80.40;96636.44;5055368;28;20194;-79
2023/02/13 01:41:56;;;;;;;36.17;20.90;;;;;;;1.20;79.81;96639.91;5055362;28;20199;-78
2023/02/13 01:44:48;;;;;;;129.38;32.88;;;;;;;1.23;82.68;96632.91;5055100;28;20198;-79
2023/02/13 01:47:18;;;;;;;35.63;20.73;;;;;;;1.24;81.79;96636.34;5055079;28;20548;-79
2023/02/13 01:49:46;;;;;;;40.90;20.88;;;;;;;1.19;81.38;96633.88;5054695;28;20296;-79
2023/02/13 01:52:15;;;;;;;33.28;20.33;;;;;;;1.23;80.90;96638.09;5055113;28;20700;-79
2023/02/13 01:54:45;;;;;;;44.80;21.50;;;;;;;1.20;80.55;96643.31;5055320;28;20270;-79
2023/02/13 01:57:16;;;;;;;31.05;18.60;;;;;;;1.19;80.53;96646.78;5055512;28;20203;-79
2023/02/13 01:59:49;;;;;;;40.42;20.02;;;;;;;1.22;80.37;96643.28;5054600;28;20204;-80
2023/02/13 02:02:16;;;;;;;38.67;20.48;;;;;;;1.17;81.16;96653.72;5054786;28;20212;-79
2023/02/13 02:04:45;;;;;;;38.45;21.85;;;;;;;1.17;81.76;96643.41;5055158;28;20252;-79
2023/02/13 02:07:17;;;;;;;37.08;21.40;;;;;;;1.19;81.20;96645.94;5054691;28;20210;-79
2023/02/13 02:09:46;;;;;;;33.85;20.90;;;;;;;1.18;81.77;96644.25;5054621;28;20222;-79
2023/02/13 02:12:22;;;;;;;40.50;18.92;;;;;;;1.17;81.69;96637.38;5054902;28;20203;-79
2023/02/13 02:14:50;;;;;;;42.03;23.45;;;;;;;1.14;81.35;96637.41;5054578;28;20202;-79
2023/02/13 02:17:17;;;;;;;37.42;20.50;;;;;;;1.15;81.32;96634.78;5003080;28;20269;-79
2023/02/13 02:19:51;;;;;;;39.28;20.25;;;;;;;1.23;80.97;96629.47;5054718;28;20245;-79
2023/02/13 02:23:07;;;;;;;40.45;21.95;;;;;;;1.35;80.87;96638.72;5002665;28;20245;-79
2023/02/13 02:26:01;;;;;;;37.22;20.95;;;;;;;1.41;80.92;96633.41;5054504;28;20698;-79
2023/02/13 02:28:59;;;;;;;46.78;21.05;;;;;;;1.41;80.45;96636.84;5054357;28;20283;-79
2023/02/13 02:31:59;;;;;;;40.65;22.20;;;;;;;1.38;81.17;96646.41;4992731;28;20201;-79
2023/02/13 02:34:34;;;;;;;43.97;25.08;;;;;;;1.35;82.18;96641.28;4992509;28;20208;-79
2023/02/13 02:37:13;;;;;;;41.15;20.38;;;;;;;1.42;82.13;96645.44;4992715;28;20197;-79
2023/02/13 02:39:49;;;;;;;41.97;22.67;;;;;;;1.42;82.05;96653.22;4992561;28;20219;-79
2023/02/13 02:42:29;;;;;;;38.92;21.95;;;;;;;1.48;81.95;96647.94;4992618;28;20205;-79
2023/02/13 02:45:05;;;;;;;49.67;22.63;;;;;;;1.54;82.25;96653.81;4944187;28;20228;-79
2023/02/13 02:50:37;;;;;;;37.08;23.15;;;;;;;1.58;82.54;96659.78;4992229;28;20283;-79
2023/02/13 02:53:15;;;;;;;44.95;24.90;;;;;;;1.56;82.35;96661.56;4992253;28;20368;-79
2023/02/13 02:55:46;;;;;;;44.60;26.17;;;;;;;1.63;82.63;96665.69;4991697;28;20834;-79
2023/02/13 03:06:49;;;;;;;42.63;23.05;;;;;;;1.70;80.73;96672.44;4934247;29;20205;-78
2023/02/13 03:14:52;;;;;;;37.35;20.80;;;;;;;1.63;81.44;96665.69;4972556;28;20197;-79
2023/02/13 03:23:20;;;;;;;41.22;24.20;;;;;;;1.54;81.22;96666.75;4972266;28;20220;-80
2023/02/13 03:26:31;;;;;;;45.28;23.88;;;;;;;1.53;81.76;96661.63;4971772;28;20241;-79
2023/02/13 03:32:02;;;;;;;44.58;23.65;;;;;;;1.50;82.63;96672.88;4895847;29;20267;-79
2023/02/13 03:37:53;;;;;;;40.60;24.50;;;;;;;1.52;82.67;96667.69;4895734;29;20211;-79
2023/02/13 03:40:15;;;;;;;51.22;23.63;;;;;;;1.48;82.23;96682.41;4921726;28;20336;-80
2023/02/13 03:42:48;;;;;;;40.30;21.63;;;;;;;1.47;82.04;96678.13;4955508;28;20198;-79
2023/02/13 03:50:04;;;;;;;48.75;24.60;;;;;;;1.42;81.19;96673.91;4971518;28;20783;-80
2023/02/13 03:50:57;;;;;;;45.38;23.15;;;;;;;1.40;81.24;96673.09;4971697;28;20229;-79
2023/02/13 03:53:28;;;;;;;42.92;22.45;;;;;;;1.33;82.35;96674.94;4971886;28;20224;-79
2023/02/13 04:01:32;;;;;;;46.28;22.70;;;;;;;1.38;82.63;96672.25;4971640;28;20237;-79
2023/02/13 04:04:05;;;;;;;49.00;23.67;;;;;;;1.34;82.53;96663.72;4996737;28;20202;-79
2023/02/13 04:06:36;;;;;;;46.15;24.52;;;;;;;1.37;83.44;96671.41;5018625;28;20207;-79
2023/02/13 04:09:04;;;;;;;41.72;24.00;;;;;;;1.38;84.22;96667.09;5052612;28;20203;-77
2023/02/13 04:11:37;;;;;;;51.00;28.50;;;;;;;1.47;84.22;96666.94;5016519;28;20463;-78
2023/02/13 04:14:08;;;;;;;61.83;29.77;;;;;;;1.56;84.39;96666.72;5053121;28;20249;-80
2023/02/13 04:16:37;;;;;;;53.95;28.42;;;;;;;1.58;83.96;96669.28;5053377;28;20205;-79
2023/02/13 04:19:06;;;;;;;47.03;27.83;;;;;;;1.62;83.63;96678.66;5053943;28;20214;-80
2023/02/13 04:21:34;;;;;;;48.88;25.50;;;;;;;1.66;83.03;96677.72;5052875;28;20932;-79
2023/02/13 04:24:01;;;;;;;43.22;23.52;;;;;;;1.71;82.67;96675.88;5018287;28;20513;-80
2023/02/13 04:26:34;;;;;;;48.57;23.63;;;;;;;1.67;81.89;96675.09;5053036;28;20231;-79
2023/02/13 04:29:04;;;;;;;38.63;22.05;;;;;;;1.61;83.03;96672.66;5052979;28;20958;-81
2023/02/13 04:31:31;;;;;;;38.72;21.65;;;;;;;1.54;82.74;96678.84;5052671;28;20285;-78
2023/02/13 04:33:58;;;;;;;35.25;19.27;;;;;;;1.52;82.42;96676.28;5017917;28;20210;-80
2023/02/13 04:36:25;;;;;;;43.97;22.08;;;;;;;1.49;81.47;96680.69;5052469;28;20204;-79
2023/02/13 04:38:52;;;;;;;49.20;22.05;;;;;;;1.43;80.96;96681.63;5052539;28;20256;-79
2023/02/13 04:41:19;;;;;;;42.60;22.92;;;;;;;1.41;80.55;96672.19;5052760;28;20891;-79
2023/02/13 04:43:47;;;;;;;37.72;23.23;;;;;;;1.36;80.62;96668.84;5052541;28;20685;-79
2023/02/13 04:46:14;;;;;;;34.58;20.00;;;;;;;1.22;81.28;96672.59;5048550;28;20228;-79
2023/02/13 04:48:41;;;;;;;39.45;21.10;;;;;;;1.20;81.01;96679.53;5031977;28;20211;-79
2023/02/13 04:51:08;;;;;;;42.67;22.75;;;;;;;1.11;81.65;96684.84;5041346;28;20229;-79
2023/02/13 04:53:34;;;;;;;39.90;21.13;;;;;;;1.07;82.39;96672.00;4999874;28;20231;-77
2023/02/13 04:56:01;;;;;;;42.92;24.52;;;;;;;1.16;83.24;96680.47;5052113;28;20252;-78
2023/02/13 04:58:28;;;;;;;48.60;23.48;;;;;;;1.16;83.70;96690.81;5046498;28;20208;-77
2023/02/13 05:00:56;;;;;;;43.75;21.77;;;;;;;1.06;83.72;96691.84;5036132;28;20682;-78
2023/02/13 05:03:23;;;;;;;42.88;24.60;;;;;;;1.02;84.20;96695.38;5032252;28;20203;-78
2023/02/13 05:05:50;;;;;;;47.45;23.50;;;;;;;0.98;84.63;96687.72;5031060;28;20253;-78
2023/02/13 05:08:17;;;;;;;45.90;22.80;;;;;;;0.96;84.26;96694.63;5032428;28;20212;-79
2023/02/13 05:10:43;;;;;;;42.15;24.40;;;;;;;0.86;84.56;96696.50;4997969;28;20231;-80
2023/02/13 05:13:10;;;;;;;41.90;21.92;;;;;;;0.80;84.29;96699.22;5031976;28;20204;-78
2023/02/13 05:15:37;;;;;;;47.28;21.80;;;;;;;0.78;84.76;96699.25;5031819;28;20211;-80
2023/02/13 05:18:05;;;;;;;43.70;20.30;;;;;;;0.80;84.70;96700.06;5032050;28;20255;-79
2023/02/13 05:20:32;;;;;;;36.97;20.80;;;;;;;0.79;84.90;96702.69;5031762;28;20212;-79
2023/02/13 05:25:43;;;;;;;50.58;23.05;;;;;;;0.75;86.62;96707.06;5031187;28;20247;-79
2023/02/13 05:30:51;;;;;;;47.28;23.75;;;;;;;0.79;87.32;96716.44;5036789;28;20231;-78
2023/02/13 05:33:19;;;;;;;46.42;23.98;;;;;;;0.80;86.93;96709.56;5041953;28;20835;-78
2023/02/13 05:35:46;;;;;;;42.13;22.52;;;;;;;0.77;86.71;96715.63;5041349;28;20215;-78
2023/02/13 05:38:13;;;;;;;43.00;23.90;;;;;;;0.77;87.30;96712.19;5039234;28;20207;-77
2023/02/13 05:40:39;;;;;;;48.85;25.77;;;;;;;0.69;87.75;96712.31;5030143;28;20204;-79
2023/02/13 05:43:06;;;;;;;42.60;26.35;;;;;;;0.72;87.57;96714.00;5047840;28;20195;-78
2023/02/13 05:45:33;;;;;;;45.38;24.05;;;;;;;0.69;87.25;96717.50;5047665;28;20252;-78
2023/02/13 05:48:00;;;;;;;51.05;23.52;;;;;;;0.64;87.12;96714.16;5033135;28;20203;-78
2023/02/13 05:50:28;;;;;;;43.35;23.35;;;;;;;0.70;86.33;96720.94;5035204;28;20226;-78
2023/02/13 05:52:54;;;;;;;43.60;22.85;;;;;;;0.59;85.92;96721.97;4994627;28;20250;-79
2023/02/13 05:55:21;;;;;;;41.08;23.38;;;;;;;0.63;85.99;96721.91;5029801;28;20204;-78
2023/02/13 05:57:48;;;;;;;43.38;22.70;;;;;;;0.64;85.70;96727.06;5039536;28;20206;-78
2023/02/13 06:00:16;;;;;;;44.03;22.45;;;;;;;0.66;85.76;96725.31;5039303;28;20225;-78
2023/02/13 06:02:43;;;;;;;38.55;21.63;;;;;;;0.66;85.46;96729.63;5049385;28;20202;-78
2023/02/13 06:05:10;;;;;;;45.40;22.98;;;;;;;0.64;85.57;96728.78;4995236;28;20208;-79
2023/02/13 06:07:38;;;;;;;35.35;20.13;;;;;;;0.70;86.58;96729.53;5046377;28;20206;-78
2023/02/13 06:10:05;;;;;;;37.47;21.63;;;;;;;0.75;86.39;96734.63;5041499;28;20636;-78
2023/02/13 06:12:33;;;;;;;45.10;23.05;;;;;;;0.80;85.19;96738.81;5041799;28;20198;-78
2023/02/13 06:14:59;;;;;;;40.17;21.55;;;;;;;0.77;85.26;96733.72;5003842;28;20214;-78
2023/02/13 06:17:26;;;;;;;34.28;21.42;;;;;;;0.77;85.10;96733.72;5044268;28;21004;-79
2023/02/13 06:19:53;;;;;;;41.15;22.92;;;;;;;0.82;85.79;96738.78;5034069;28;20200;-78
2023/02/13 06:22:20;;;;;;;41.75;22.00;;;;;;;0.86;86.44;96740.44;5035118;28;20689;-80
2023/02/13 06:24:48;;;;;;;44.92;24.48;;;;;;;0.92;86.32;96745.53;5034398;28;20697;-79
2023/02/13 06:27:15;;;;;;;42.65;21.48;;;;;;;0.91;86.06;96743.81;5043935;28;20230;-78
2023/02/13 06:29:41;;;;;;;39.08;23.65;;;;;;;0.93;86.01;96749.81;5014258;28;20213;-78
2023/02/13 06:32:08;;;;;;;51.38;26.17;;;;;;;0.95;85.99;96745.47;5043276;28;20312;-79
2023/02/13 06:34:35;;;;;;;37.90;22.98;;;;;;;1.01;86.27;96749.69;5035730;28;20208;-80
2023/02/13 06:37:01;;;;;;;44.35;22.83;;;;;;;1.05;86.35;96748.75;5042772;28;20682;-80
2023/02/13 06:39:28;;;;;;;40.58;23.52;;;;;;;1.15;87.10;96743.38;5033051;28;20259;-79
2023/02/13 06:41:56;;;;;;;58.30;27.98;;;;;;;1.20;86.41;96744.16;5035178;28;20212;-80
2023/02/13 06:44:23;;;;;;;48.45;24.75;;;;;;;1.30;86.64;96751.75;5035031;28;20560;-83
2023/02/13 06:46:50;;;;;;;46.33;26.73;;;;;;;1.39;87.38;96741.22;5000417;28;20581;-80
2023/02/13 06:49:17;;;;;;;44.50;24.95;;;;;;;1.50;86.82;96750.47;5035196;28;20207;-79
2023/02/13 06:51:43;;;;;;;41.67;23.33;;;;;;;1.60;86.46;96743.38;5034985;28;20231;-81
2023/02/13 06:54:10;;;;;;;42.97;25.23;;;;;;;1.72;86.75;96745.72;5038219;28;20276;-80
2023/02/13 06:56:39;;;;;;;42.97;25.67;;;;;;;1.84;85.42;96747.22;5046569;28;20203;-78
2023/02/13 06:59:07;;;;;;;42.88;24.13;;;;;;;1.96;83.98;96738.31;5045233;28;20646;-79
2023/02/13 07:01:34;;;;;;;43.00;25.80;;;;;;;2.02;83.02;96743.38;5046002;28;20222;-81
2023/02/13 07:04:01;;;;;;;39.97;22.55;;;;;;;2.03;82.31;96751.13;5006357;28;20200;-80
2023/02/13 07:06:28;;;;;;;44.43;21.00;;;;;;;2.09;82.51;96745.81;5045148;28;20211;-80
2023/02/13 07:08:55;;;;;;;45.75;24.73;;;;;;;2.04;82.86;96746.81;5034653;28;20797;-80
2023/02/13 07:11:24;;;;;;;50.25;26.05;;;;;;;2.05;83.06;96743.31;5040563;28;20314;-79
2023/02/13 07:13:51;;;;;;;43.40;24.30;;;;;;;2.03;83.23;96745.94;5054722;28;20280;-80
2023/02/13 07:16:19;;;;;;;44.42;23.92;;;;;;;2.10;83.08;96737.16;5047608;28;20643;-80
2023/02/13 07:18:46;;;;;;;46.95;26.95;;;;;;;2.20;82.80;96745.56;5047173;28;20207;-81
2023/02/13 07:21:13;;;;;;;54.80;29.80;;;;;;;2.25;83.70;96750.63;5031703;28;20202;-81
2023/02/13 07:23:40;;;;;;;52.67;26.80;;;;;;;2.30;83.23;96747.03;5038330;28;20192;-79
2023/02/13 07:26:06;;;;;;;43.33;24.38;;;;;;;2.31;82.45;96748.75;5041943;28;20232;-79
2023/02/13 07:28:33;;;;;;;63.30;25.93;;;;;;;2.29;81.99;96745.34;5049852;28;20207;-80
2023/02/13 07:31:05;;;;;;;45.58;24.88;;;;;;;2.34;82.44;96747.84;5051165;28;20487;-79
2023/02/13 07:33:33;;;;;;;43.97;28.33;;;;;;;2.36;82.70;96757.28;5050816;28;20257;-79
2023/02/13 07:36:02;;;;;;;46.08;25.73;;;;;;;2.41;82.73;96758.03;5051152;28;20454;-80
2023/02/13 07:38:29;;;;;;;64.07;31.33;;;;;;;2.47;83.62;96763.06;5037029;28;20199;-79
2023/02/13 07:40:58;;;;;;;56.20;30.70;;;;;;;2.57;83.53;96762.84;5034084;28;20303;-80
2023/02/13 07:43:25;;;;;;;60.70;28.90;;;;;;;2.60;83.02;96750.69;5046962;28;20462;-80
2023/02/13 07:45:54;;;;;;;55.30;29.30;;;;;;;2.65;82.26;96750.59;5043966;28;20445;-80
2023/02/13 07:48:21;;;;;;;46.70;26.07;;;;;;;2.69;82.22;96754.81;5054050;28;20866;-80
2023/02/13 07:50:49;;;;;;;51.97;25.53;;;;;;;2.68;82.66;96755.69;5054556;28;20562;-79
2023/02/13 07:53:16;;;;;;;52.33;28.73;;;;;;;2.80;83.01;96750.19;5018591;28;20450;-80
2023/02/13 07:55:43;;;;;;;58.97;28.83;;;;;;;2.92;83.41;96759.44;5053370;28;20445;-80
2023/02/13 07:58:09;;;;;;;48.73;27.20;;;;;;;2.96;82.15;96756.72;5052643;28;20449;-80
2023/02/13 08:00:36;;;;;;;48.67;25.10;;;;;;;3.02;81.29;96756.56;5052613;28;20445;-81
2023/02/13 08:03:03;;;;;;;39.43;22.63;;;;;;;3.07;80.47;96744.31;5052693;28;20456;-79
2023/02/13 08:05:32;;;;;;;44.53;26.90;;;;;;;3.09;80.98;96754.66;5052636;28;20441;-80
2023/02/13 08:08:00;;;;;;;43.83;25.97;;;;;;;3.10;80.50;96759.78;5001083;28;20491;-80
2023/02/13 08:13:13;;;;;;;50.23;27.80;;;;;;;3.24;80.90;96751.69;5052705;28;20424;-81
2023/02/13 08:15:39;;;;;;;51.83;27.97;;;;;;;3.34;79.55;96740.16;5052725;28;20453;-80
2023/02/13 08:18:06;;;;;;;55.70;30.57;;;;;;;3.44;79.87;96748.53;5052878;28;20450;-80
2023/02/13 08:20:33;;;;;;;54.13;29.40;;;;;;;3.41;79.99;96748.63;5052492;28;20454;-80
2023/02/13 08:23:04;;;;;;;58.10;31.47;;;;;;;3.50;80.19;96745.78;5052243;28;20473;-80
2023/02/13 08:25:31;;;;;;;65.10;31.80;;;;;;;3.55;80.29;96756.91;5051927;28;20477;-80
2023/02/13 08:27:58;;;;;;;55.30;30.90;;;;;;;3.61;79.62;96751.53;5052119;28;20511;-80
2023/02/13 08:30:25;;;;;;;54.53;30.10;;;;;;;3.67;79.50;96746.16;5000733;28;20445;-80
2023/02/13 08:32:53;;;;;;;57.90;30.43;;;;;;;3.74;79.18;96747.69;5017758;28;20492;-81
2023/02/13 08:35:19;;;;;;;59.60;33.67;;;;;;;3.85;79.89;96741.34;5052294;28;20437;-80
2023/02/13 08:37:46;;;;;;;55.50;32.40;;;;;;;3.95;79.46;96748.81;5053453;28;20441;-80
2023/02/13 08:40:14;;;;;;;74.30;35.60;;;;;;;3.98;79.82;96750.47;5051850;28;20449;-80
2023/02/13 08:42:42;;;;;;;73.23;35.53;;;;;;;3.98;79.07;96742.69;5052008;28;20445;-80
2023/02/13 08:45:10;;;;;;;72.77;37.40;;;;;;;3.98;79.00;96745.28;5052055;28;20445;-80
2023/02/13 08:47:38;;;;;;;85.33;39.77;;;;;;;3.97;78.78;96741.84;5051752;28;20453;-80
2023/02/13 08:50:07;;;;;;;68.70;36.17;;;;;;;4.05;79.59;96746.84;5052105;28;20445;-80
2023/02/13 08:52:33;;;;;;;77.53;39.70;;;;;;;4.03;79.61;96746.00;5051648;28;20485;-80
2023/02/13 08:55:02;;;;;;;70.13;37.80;;;;;;;4.02;78.91;96744.28;5051974;28;20820;-80
2023/02/13 08:57:31;;;;;;;76.63;37.07;;;;;;;3.91;80.10;96744.63;5051780;28;20569;-80
2023/02/13 08:59:57;;;;;;;69.10;34.77;;;;;;;3.98;80.83;96745.28;5000724;28;20524;-80
2023/02/13 09:02:24;;;;;;;67.90;36.53;;;;;;;3.99;81.23;96742.63;5051684;28;20449;-80
2023/02/13 09:04:51;;;;;;;84.10;36.87;;;;;;;4.02;81.36;96744.28;5051642;28;20449;-80
2023/02/13 09:07:18;;;;;;;78.47;37.93;;;;;;;3.97;81.22;96741.00;5051522;28;20932;-80
2023/02/13 09:09:44;;;;;;;79.77;39.27;;;;;;;3.97;80.29;96743.59;5051431;28;20460;-80
2023/02/13 09:12:12;;;;;;;89.40;39.97;;;;;;;4.01;80.50;96747.78;5051603;28;20913;-80
2023/02/13 09:14:40;;;;;;;83.33;39.97;;;;;;;3.76;81.58;96744.19;5051630;28;20445;-80
2023/02/13 09:17:07;;;;;;;67.73;34.63;;;;;;;3.81;80.70;96752.72;5051931;28;20516;-81
2023/02/13 09:19:34;;;;;;;80.50;36.80;;;;;;;3.79;80.64;96749.31;5053239;28;20449;-81
2023/02/13 09:22:01;;;;;;;63.43;33.50;;;;;;;3.80;80.46;96738.03;5055104;28;20445;-79
2023/02/13 09:24:28;;;;;;;55.40;31.07;;;;;;;3.93;81.35;96734.19;4999814;28;20433;-80
2023/02/13 09:26:55;;;;;;;64.60;34.70;;;;;;;3.99;79.95;96731.41;5051900;28;20522;-80
2023/02/13 09:29:22;;;;;;;67.93;31.43;;;;;;;4.14;79.23;96728.38;5051341;28;20446;-80
2023/02/13 09:31:50;;;;;;;67.47;33.90;;;;;;;4.12;79.13;96732.75;4999917;28;20535;-80
2023/02/13 09:34:17;;;;;;;79.80;38.40;;;;;;;4.03;79.73;96730.41;5051344;28;20445;-80
2023/02/13 09:36:43;;;;;;;67.87;34.67;;;;;;;3.95;80.59;96720.25;5051427;28;20941;-80
2023/02/13 09:39:10;;;;;;;61.57;33.50;;;;;;;4.11;80.08;96722.41;5051559;28;20467;-80
2023/02/13 09:41:40;;;;;;;66.53;35.27;;;;;;;4.19;79.64;96723.88;5051381;28;20816;-81
2023/02/13 09:44:32;;;;;;;62.57;33.00;;;;;;;4.25;79.86;96715.88;5051358;28;20457;-81
2023/02/13 09:47:04;;;;;;;65.73;33.40;;;;;;;4.30;78.78;96716.59;5055045;28;20480;-81
2023/02/13 09:49:35;;;;;;;68.20;35.93;;;;;;;4.29;78.78;96708.84;5054935;28;20437;-80
2023/02/13 09:52:02;;;;;;;72.50;34.73;;;;;;;4.39;78.90;96712.03;5055336;28;20492;-81
2023/02/13 09:54:30;;;;;;;73.57;34.43;;;;;;;4.53;79.40;96707.22;5054755;28;20960;-81
2023/02/13 09:57:06;;;;;;;66.43;35.07;;;;;;;4.68;77.16;96706.75;5054825;28;20451;-82
2023/02/13 09:59:43;;;;;;;68.63;35.87;;;;;;;4.98;77.75;96703.13;5054726;28;20955;-81
2023/02/13 10:02:31;;;;;;;74.27;35.33;;;;;;;5.04;75.88;96706.41;5055025;28;20449;-81
2023/02/13 10:05:10;;;;;;;71.70;37.90;;;;;;;5.00;75.77;96695.28;5054995;28;20449;-81
2023/02/13 10:07:43;;;;;;;77.53;38.30;;;;;;;5.07;76.58;96694.16;5054893;28;20932;-81
2023/02/13 10:10:22;;;;;;;73.57;37.00;;;;;;;5.02;76.11;96697.81;5055010;28;20939;-81
2023/02/13 10:13:04;;;;;;;69.03;37.53;;;;;;;5.16;75.92;96687.78;5055050;28;20484;-82
2023/02/13 10:15:37;;;;;;;67.37;36.70;;;;;;;5.21;76.11;96686.75;5054856;28;20966;-81
2023/02/13 10:18:12;;;;;;;73.63;36.40;;;;;;;5.17;75.30;96689.47;5054521;28;20524;-81
2023/02/13 10:20:44;;;;;;;72.37;34.70;;;;;;;5.24;75.06;96677.97;5054898;28;20441;-82
2023/02/13 10:23:21;;;;;;;68.03;33.93;;;;;;;5.29;74.63;96678.66;5054492;28;20453;-81
2023/02/13 10:25:53;;;;;;;86.00;37.43;;;;;;;5.32;75.17;96668.13;5054338;28;20491;-81
2023/02/13 10:28:30;;;;;;;76.40;35.67;;;;;;;5.43;74.25;96663.38;5054273;28;20492;-81
2023/02/13 10:31:02;;;;;;;71.90;36.70;;;;;;;5.43;74.17;96655.56;5054188;28;20441;-81
2023/02/13 10:33:37;;;;;;;82.30;41.77;;;;;;;5.50;74.08;96658.81;5054114;28;20480;-81
2023/02/13 10:36:14;;;;;;;70.33;38.77;;;;;;;5.65;74.43;96654.78;5054774;28;20433;-81
2023/02/13 10:38:44;;;;;;;67.57;34.60;;;;;;;5.69;72.95;96645.94;5054435;28;20457;-81
2023/02/13 10:41:25;;;;;;;77.93;35.60;;;;;;;5.74;74.02;96641.41;5019586;28;20856;-81
2023/02/13 10:44:09;;;;;;;66.93;36.60;;;;;;;5.80;72.98;96636.00;5018680;28;20768;-81
2023/02/13 10:46:46;;;;;;;67.00;36.67;;;;;;;5.80;73.57;96634.25;5054477;28;20441;-81
2023/02/13 10:49:44;;;;;;;73.07;35.40;;;;;;;5.83;71.73;96628.91;5055180;28;20448;-81
2023/02/13 10:52:23;;;;;;;64.83;32.20;;;;;;;5.90;71.24;96626.94;5004454;28;21000;-81
2023/02/13 10:55:14;;;;;;;66.03;35.07;;;;;;;5.94;71.71;96627.66;5054850;28;20955;-81
2023/02/13 10:58:01;;;;;;;66.50;37.03;;;;;;;5.80;72.31;96618.63;5002816;28;20486;-81
2023/02/13 11:00:32;;;;;;;68.27;35.67;;;;;;;5.82;73.36;96618.56;5054602;28;20532;-81
2023/02/13 11:02:59;;;;;;;63.40;33.70;;;;;;;5.69;72.06;96617.31;5054592;28;20833;-81
2023/02/13 11:05:32;;;;;;;65.63;34.10;;;;;;;5.65;71.44;96607.91;5055005;28;20468;-81
2023/02/13 11:07:59;;;;;;;63.57;33.53;;;;;;;5.70;73.13;96611.19;5054913;28;20438;-81
2023/02/13 11:10:27;;;;;;;73.57;35.70;;;;;;;5.83;72.90;96602.88;5055865;28;20445;-80
2023/02/13 11:12:54;;;;;;;60.97;31.97;;;;;;;5.90;71.50;96595.69;5054804;28;20512;-81
2023/02/13 11:15:25;;;;;;;59.57;30.33;;;;;;;5.97;71.00;96601.50;5002996;28;20452;-80
2023/02/13 11:17:56;;;;;;;64.80;34.23;;;;;;;6.04;70.99;96585.56;5054022;28;20942;-82
2023/02/13 11:20:31;;;;;;;74.53;40.20;;;;;;;6.15;72.55;96591.19;5053958;28;20446;-80
2023/02/13 11:23:18;;;;;;;70.47;35.67;;;;;;;6.22;72.11;96579.63;5054662;28;20493;-81
2023/02/13 11:25:56;;;;;;;65.23;34.20;;;;;;;6.15;71.57;96574.72;5054394;28;20550;-81
2023/02/13 11:28:24;;;;;;;71.40;34.70;;;;;;;6.16;71.91;96565.97;5022954;28;20536;-80
2023/02/13 11:30:50;;;;;;;60.67;32.53;;;;;;;6.22;71.48;96565.72;5004360;28;20434;-81
2023/02/13 11:33:23;;;;;;;63.17;32.67;;;;;;;6.34;70.99;96559.16;5053500;28;20584;-81
2023/02/13 11:36:05;;;;;;;63.03;33.40;;;;;;;6.44;71.02;96558.72;5056360;28;20465;-81
2023/02/13 11:38:31;;;;;;;60.70;33.10;;;;;;;6.44;70.00;96547.44;5054103;28;20449;-81
2023/02/13 11:41:07;;;;;;;55.20;32.13;;;;;;;6.35;69.81;96548.66;5055374;28;20498;-81
2023/02/13 11:43:36;;;;;;;58.20;31.67;;;;;;;6.40;70.00;96543.28;5053576;28;20492;-81
2023/02/13 11:46:07;;;;;;;64.33;32.77;;;;;;;6.49;70.51;96542.88;5053492;28;20485;-81
2023/02/13 11:48:34;;;;;;;67.40;35.10;;;;;;;6.53;68.93;96541.84;5054746;28;20984;-82
2023/02/13 11:51:04;;;;;;;56.13;30.13;;;;;;;6.58;69.86;96523.38;5053817;28;20495;-80
2023/02/13 11:53:36;;;;;;;56.10;31.53;;;;;;;6.68;69.36;96525.53;5018202;28;20832;-81
2023/02/13 11:56:07;;;;;;;51.17;28.53;;;;;;;6.75;68.75;96526.13;5052872;28;20450;-81
2023/02/13 11:58:34;;;;;;;54.10;28.47;;;;;;;6.76;68.04;96510.41;5052932;28;20924;-81
2023/02/13 12:01:24;;;;;;;54.53;26.80;;;;;;;6.73;67.67;96507.94;5052740;28;20940;-80
2023/02/13 12:04:03;;;;;;;53.17;26.80;;;;;;;6.70;67.94;96497.63;5052655;28;20574;-81
2023/02/13 12:06:38;;;;;;;47.30;24.60;;;;;;;6.74;66.93;96499.19;5052724;28;20449;-81
2023/02/13 12:09:10;;;;;;;50.10;26.07;;;;;;;6.59;65.68;96478.97;5052131;28;20819;-81
2023/02/13 12:11:45;;;;;;;42.17;23.60;;;;;;;6.71;66.82;96490.66;5052415;28;20890;-81
2023/02/13 12:14:16;;;;;;;44.43;24.43;;;;;;;6.70;67.23;96496.78;5052485;28;20480;-81
2023/02/13 12:16:46;;;;;;;44.07;23.17;;;;;;;6.79;66.79;96498.97;5057082;28;20449;-81
2023/02/13 12:19:17;;;;;;;34.30;21.17;;;;;;;6.72;65.43;96495.81;5061238;28;20509;-81
2023/02/13 12:22:07;;;;;;;48.60;23.70;;;;;;;6.81;66.21;96490.16;5059101;28;20507;-81
2023/02/13 12:24:49;;;;;;;28.83;19.00;;;;;;;6.81;64.33;96490.16;5056410;28;20507;-81